sensor_id;sensor_type;location;lat;lon;timestamp;temperature;humidity
30001;DHT22;16845;48.670;9.000;2023-01-29T00:01:32;0.00;99.90
30001;DHT22;16845;48.670;9.000;2023-01-29T00:04:00;0.00;99.90
30001;DHT22;16845;48.670;9.000;2023-01-29T00:06:28;0.00;99.90
30001;DHT22;16845;48.670;9.000;2023-01-29T00:08:57;0.00;99.90
30001;DHT22;16845;48.670;9.000;2023-01-29T00:11:25;0.00;99.90
30001;DHT22;16845;48.670;9.000;2023-01-29T00:13:53;-0.10;99.90
30001;DHT22;16845;48.670;9.000;2023-01-29T00:16:21;-0.10;99.90
30001;DHT22;16845;48.670;9.000;2023-01-29T00:18:49;-0.10;99.90
30001;DHT22;16845;48.670;9.000;2023-01-29T00:21:18;0.00;99.90
30001;DHT22;16845;48.670;9.000;2023-01-29T00:23:48;0.00;99.90
30001;DHT22;16845;48.670;9.000;2023-01-29T00:26:17;0.00;99.90
30001;DHT22;16845;48.670;9.000;2023-01-29T00:28:45;0.00;99.90
30001;DHT22;16845;48.670;9.000;2023-01-29T00:31:14;0.00;99.90
30001;DHT22;16845;48.670;9.000;2023-01-29T00:33:43;0.00;99.90
30001;DHT22;16845;48.670;9.000;2023-01-29T00:36:13;-0.10;99.90
30001;DHT22;16845;48.670;9.000;2023-01-29T00:38:41;0.00;99.90
30001;DHT22;16845;48.670;9.000;2023-01-29T00:41:11;0.10;99.90
30001;DHT22;16845;48.670;9.000;2023-01-29T00:44:04;0.00;99.90
30001;DHT22;16845;48.670;9.000;2023-01-29T00:46:50;0.00;99.90
30001;DHT22;16845;48.670;9.000;2023-01-29T00:49:18;-0.10;99.90
30001;DHT22;16845;48.670;9.000;2023-01-29T00:51:46;0.00;99.90
30001;DHT22;16845;48.670;9.000;2023-01-29T00:54:35;-0.10;99.90
30001;DHT22;16845;48.670;9.000;2023-01-29T00:57:03;0.00;99.90
30001;DHT22;16845;48.670;9.000;2023-01-29T00:59:32;0.00;99.90
30001;DHT22;16845;48.670;9.000;2023-01-29T01:02:00;0.00;99.90
30001;DHT22;16845;48.670;9.000;2023-01-29T01:04:45;0.10;99.90
30001;DHT22;16845;48.670;9.000;2023-01-29T01:07:13;0.10;99.90
30001;DHT22;16845;48.670;9.000;2023-01-29T01:09:41;0.10;99.90
30001;DHT22;16845;48.670;9.000;2023-01-29T01:12:27;0.10;99.90
30001;DHT22;16845;48.670;9.000;2023-01-29T01:14:57;0.20;99.90
30001;DHT22;16845;48.670;9.000;2023-01-29T01:17:25;0.10;99.90
30001;DHT22;16845;48.670;9.000;2023-01-29T01:19:53;0.10;99.90
30001;DHT22;16845;48.670;9.000;2023-01-29T01:22:20;0.10;99.90
30001;DHT22;16845;48.670;9.000;2023-01-29T01:24:48;0.00;99.90
30001;DHT22;16845;48.670;9.000;2023-01-29T01:27:16;0.00;99.90
30001;DHT22;16845;48.670;9.000;2023-01-29T01:29:45;0.00;99.90
30001;DHT22;16845;48.670;9.000;2023-01-29T01:32:14;0.00;99.90
30001;DHT22;16845;48.670;9.000;2023-01-29T01:34:42;0.00;99.90
30001;DHT22;16845;48.670;9.000;2023-01-29T01:37:11;-0.10;99.90
30001;DHT22;16845;48.670;9.000;2023-01-29T01:39:39;0.00;99.90
30001;DHT22;16845;48.670;9.000;2023-01-29T01:42:11;0.10;99.90
30001;DHT22;16845;48.670;9.000;2023-01-29T01:44:54;0.10;99.90
30001;DHT22;16845;48.670;9.000;2023-01-29T01:47:28;0.00;99.90
30001;DHT22;16845;48.670;9.000;2023-01-29T01:50:00;0.00;99.90
30001;DHT22;16845;48.670;9.000;2023-01-29T01:52:30;0.00;99.90
30001;DHT22;16845;48.670;9.000;2023-01-29T01:54:59;-0.10;99.90
30001;DHT22;16845;48.670;9.000;2023-01-29T01:57:28;-0.10;99.90
30001;DHT22;16845;48.670;9.000;2023-01-29T01:59:59;0.00;99.90
30001;DHT22;16845;48.670;9.000;2023-01-29T02:02:37;0.00;99.90
30001;DHT22;16845;48.670;9.000;2023-01-29T02:05:24;0.00;99.90
30001;DHT22;16845;48.670;9.000;2023-01-29T02:08:10;0.00;99.90
30001;DHT22;16845;48.670;9.000;2023-01-29T02:10:57;0.00;99.90
30001;DHT22;16845;48.670;9.000;2023-01-29T02:13:25;-0.10;99.90
30001;DHT22;16845;48.670;9.000;2023-01-29T02:15:53;-0.10;99.90
30001;DHT22;16845;48.670;9.000;2023-01-29T02:18:22;-0.10;99.90
30001;DHT22;16845;48.670;9.000;2023-01-29T02:21:06;-0.10;99.90
30001;DHT22;16845;48.670;9.000;2023-01-29T02:24:10;-0.10;99.90
30001;DHT22;16845;48.670;9.000;2023-01-29T02:26:52;-0.10;99.90
30001;DHT22;16845;48.670;9.000;2023-01-29T02:29:33;-0.10;99.90
30001;DHT22;16845;48.670;9.000;2023-01-29T02:32:12;-0.10;99.90
30001;DHT22;16845;48.670;9.000;2023-01-29T02:34:51;-0.10;99.90
30001;DHT22;16845;48.670;9.000;2023-01-29T02:37:41;0.00;99.90
30001;DHT22;16845;48.670;9.000;2023-01-29T02:40:20;0.00;99.90
30001;DHT22;16845;48.670;9.000;2023-01-29T02:42:56;-0.10;99.90
30001;DHT22;16845;48.670;9.000;2023-01-29T02:45:32;-0.10;99.90
30001;DHT22;16845;48.670;9.000;2023-01-29T02:48:02;-0.10;99.90
30001;DHT22;16845;48.670;9.000;2023-01-29T02:50:33;-0.10;99.90
30001;DHT22;16845;48.670;9.000;2023-01-29T02:53:07;-0.10;99.90
30001;DHT22;16845;48.670;9.000;2023-01-29T02:55:40;-0.10;99.90
30001;DHT22;16845;48.670;9.000;2023-01-29T02:58:12;-0.10;99.90
30001;DHT22;16845;48.670;9.000;2023-01-29T03:00:44;-0.10;99.90
30001;DHT22;16845;48.670;9.000;2023-01-29T03:03:16;-0.10;99.90
30001;DHT22;16845;48.670;9.000;2023-01-29T03:05:50;-0.20;99.90
30001;DHT22;16845;48.670;9.000;2023-01-29T03:08:27;-0.10;99.90
30001;DHT22;16845;48.670;9.000;2023-01-29T03:11:05;-0.20;99.90
30001;DHT22;16845;48.670;9.000;2023-01-29T03:13:37;-0.20;99.90
30001;DHT22;16845;48.670;9.000;2023-01-29T03:16:13;-0.20;99.90
30001;DHT22;16845;48.670;9.000;2023-01-29T03:18:45;-0.20;99.90
30001;DHT22;16845;48.670;9.000;2023-01-29T03:21:20;-0.20;99.90
30001;DHT22;16845;48.670;9.000;2023-01-29T03:24:17;-0.20;99.90
30001;DHT22;16845;48.670;9.000;2023-01-29T03:27:07;-0.20;99.90
30001;DHT22;16845;48.670;9.000;2023-01-29T03:29:54;-0.10;99.90
30001;DHT22;16845;48.670;9.000;2023-01-29T03:32:43;-0.20;99.90
30001;DHT22;16845;48.670;9.000;2023-01-29T03:35:15;-0.20;99.90
30001;DHT22;16845;48.670;9.000;2023-01-29T03:37:47;-0.20;99.90
30001;DHT22;16845;48.670;9.000;2023-01-29T03:40:15;-0.20;99.90
30001;DHT22;16845;48.670;9.000;2023-01-29T03:42:52;-0.20;99.90
30001;DHT22;16845;48.670;9.000;2023-01-29T03:45:28;-0.20;99.90
30001;DHT22;16845;48.670;9.000;2023-01-29T03:48:05;-0.20;99.90
30001;DHT22;16845;48.670;9.000;2023-01-29T03:50:40;-0.20;99.90
30001;DHT22;16845;48.670;9.000;2023-01-29T03:53:20;-0.20;99.90
30001;DHT22;16845;48.670;9.000;2023-01-29T03:55:56;-0.20;99.90
30001;DHT22;16845;48.670;9.000;2023-01-29T03:58:33;-0.20;99.90
30001;DHT22;16845;48.670;9.000;2023-01-29T04:01:09;-0.20;99.90
30001;DHT22;16845;48.670;9.000;2023-01-29T04:03:41;-0.20;99.90
30001;DHT22;16845;48.670;9.000;2023-01-29T04:06:14;-0.20;99.90
30001;DHT22;16845;48.670;9.000;2023-01-29T04:08:47;-0.20;99.90
30001;DHT22;16845;48.670;9.000;2023-01-29T04:11:18;-0.20;99.90
30001;DHT22;16845;48.670;9.000;2023-01-29T04:13:48;-0.30;99.90
30001;DHT22;16845;48.670;9.000;2023-01-29T04:16:21;-0.30;99.90
30001;DHT22;16845;48.670;9.000;2023-01-29T04:18:52;-0.30;99.90
30001;DHT22;16845;48.670;9.000;2023-01-29T04:21:20;-0.30;99.90
30001;DHT22;16845;48.670;9.000;2023-01-29T04:23:48;-0.20;99.90
30001;DHT22;16845;48.670;9.000;2023-01-29T04:26:37;-0.20;99.90
30001;DHT22;16845;48.670;9.000;2023-01-29T04:29:24;-0.20;99.90
30001;DHT22;16845;48.670;9.000;2023-01-29T04:32:02;-0.20;99.90
30001;DHT22;16845;48.670;9.000;2023-01-29T04:34:45;-0.10;99.90
30001;DHT22;16845;48.670;9.000;2023-01-29T04:37:25;-0.10;99.90
30001;DHT22;16845;48.670;9.000;2023-01-29T04:40:02;-0.20;99.90
30001;DHT22;16845;48.670;9.000;2023-01-29T04:42:36;-0.20;99.90
30001;DHT22;16845;48.670;9.000;2023-01-29T04:45:12;-0.30;99.90
30001;DHT22;16845;48.670;9.000;2023-01-29T04:47:48;-0.30;99.90
30001;DHT22;16845;48.670;9.000;2023-01-29T04:50:24;-0.30;99.90
30001;DHT22;16845;48.670;9.000;2023-01-29T04:52:58;-0.40;99.90
30001;DHT22;16845;48.670;9.000;2023-01-29T04:55:31;-0.30;99.90
30001;DHT22;16845;48.670;9.000;2023-01-29T04:58:06;-0.30;99.90
30001;DHT22;16845;48.670;9.000;2023-01-29T05:00:38;-0.30;99.90
30001;DHT22;16845;48.670;9.000;2023-01-29T05:03:08;-0.30;99.90
30001;DHT22;16845;48.670;9.000;2023-01-29T05:05:40;-0.20;99.90
30001;DHT22;16845;48.670;9.000;2023-01-29T05:08:11;-0.30;99.90
30001;DHT22;16845;48.670;9.000;2023-01-29T05:10:40;-0.20;99.90
30001;DHT22;16845;48.670;9.000;2023-01-29T05:13:11;-0.20;99.90
30001;DHT22;16845;48.670;9.000;2023-01-29T05:15:43;-0.20;99.90
30001;DHT22;16845;48.670;9.000;2023-01-29T05:18:13;-0.20;99.90
30001;DHT22;16845;48.670;9.000;2023-01-29T05:20:42;-0.30;99.90
30001;DHT22;16845;48.670;9.000;2023-01-29T05:23:15;-0.30;99.90
30001;DHT22;16845;48.670;9.000;2023-01-29T05:25:44;-0.30;99.90
30001;DHT22;16845;48.670;9.000;2023-01-29T05:28:12;-0.30;99.90
30001;DHT22;16845;48.670;9.000;2023-01-29T05:30:44;-0.30;99.90
30001;DHT22;16845;48.670;9.000;2023-01-29T05:33:14;-0.30;99.90
30001;DHT22;16845;48.670;9.000;2023-01-29T05:35:44;-0.30;99.90
30001;DHT22;16845;48.670;9.000;2023-01-29T05:38:12;-0.30;99.90
30001;DHT22;16845;48.670;9.000;2023-01-29T05:40:40;-0.20;99.90
30001;DHT22;16845;48.670;9.000;2023-01-29T05:43:14;-0.30;99.90
30001;DHT22;16845;48.670;9.000;2023-01-29T05:45:42;-0.20;99.90
30001;DHT22;16845;48.670;9.000;2023-01-29T05:48:10;-0.20;99.90
30001;DHT22;16845;48.670;9.000;2023-01-29T05:50:38;-0.30;99.90
30001;DHT22;16845;48.670;9.000;2023-01-29T05:53:08;-0.30;99.90
30001;DHT22;16845;48.670;9.000;2023-01-29T05:55:35;-0.30;99.90
30001;DHT22;16845;48.670;9.000;2023-01-29T05:58:03;-0.30;99.90
30001;DHT22;16845;48.670;9.000;2023-01-29T06:00:31;-0.20;99.90
30001;DHT22;16845;48.670;9.000;2023-01-29T06:02:59;-0.30;99.90
30001;DHT22;16845;48.670;9.000;2023-01-29T06:05:27;-0.20;99.90
30001;DHT22;16845;48.670;9.000;2023-01-29T06:07:55;-0.10;99.90
30001;DHT22;16845;48.670;9.000;2023-01-29T06:10:24;0.00;99.90
30001;DHT22;16845;48.670;9.000;2023-01-29T06:12:52;0.00;99.90
30001;DHT22;16845;48.670;9.000;2023-01-29T06:15:20;-0.10;99.90
30001;DHT22;16845;48.670;9.000;2023-01-29T06:17:48;-0.20;99.90
30001;DHT22;16845;48.670;9.000;2023-01-29T06:20:16;-0.30;99.90
30001;DHT22;16845;48.670;9.000;2023-01-29T06:22:44;-0.30;99.90
30001;DHT22;16845;48.670;9.000;2023-01-29T06:25:12;-0.30;99.90
30001;DHT22;16845;48.670;9.000;2023-01-29T06:27:42;-0.30;99.90
30001;DHT22;16845;48.670;9.000;2023-01-29T06:30:10;-0.30;99.90
30001;DHT22;16845;48.670;9.000;2023-01-29T06:32:38;-0.20;99.90
30001;DHT22;16845;48.670;9.000;2023-01-29T06:35:07;-0.20;99.90
30001;DHT22;16845;48.670;9.000;2023-01-29T06:37:36;-0.20;99.90
30001;DHT22;16845;48.670;9.000;2023-01-29T06:40:05;-0.20;99.90
30001;DHT22;16845;48.670;9.000;2023-01-29T06:42:34;-0.20;99.90
30001;DHT22;16845;48.670;9.000;2023-01-29T06:45:04;-0.30;99.90
30001;DHT22;16845;48.670;9.000;2023-01-29T06:47:32;-0.30;99.90
30001;DHT22;16845;48.670;9.000;2023-01-29T06:50:00;-0.30;99.90
30001;DHT22;16845;48.670;9.000;2023-01-29T06:52:27;-0.30;99.90
30001;DHT22;16845;48.670;9.000;2023-01-29T06:54:55;-0.30;99.90
30001;DHT22;16845;48.670;9.000;2023-01-29T06:57:23;-0.30;99.90
30001;DHT22;16845;48.670;9.000;2023-01-29T06:59:51;-0.30;99.90
30001;DHT22;16845;48.670;9.000;2023-01-29T07:02:20;-0.30;99.90
30001;DHT22;16845;48.670;9.000;2023-01-29T07:04:48;-0.30;99.90
30001;DHT22;16845;48.670;9.000;2023-01-29T07:07:16;-0.30;99.90
30001;DHT22;16845;48.670;9.000;2023-01-29T07:09:44;-0.30;99.90
30001;DHT22;16845;48.670;9.000;2023-01-29T07:12:12;-0.30;99.90
30001;DHT22;16845;48.670;9.000;2023-01-29T07:14:40;-0.30;99.90
30001;DHT22;16845;48.670;9.000;2023-01-29T07:17:07;-0.30;99.90
30001;DHT22;16845;48.670;9.000;2023-01-29T07:19:37;-0.20;99.90
30001;DHT22;16845;48.670;9.000;2023-01-29T07:22:05;-0.30;99.90
30001;DHT22;16845;48.670;9.000;2023-01-29T07:24:32;-0.30;99.90
30001;DHT22;16845;48.670;9.000;2023-01-29T07:27:00;-0.20;99.90
30001;DHT22;16845;48.670;9.000;2023-01-29T07:29:28;-0.20;99.90
30001;DHT22;16845;48.670;9.000;2023-01-29T07:31:56;-0.10;99.90
30001;DHT22;16845;48.670;9.000;2023-01-29T07:34:24;-0.10;99.90
30001;DHT22;16845;48.670;9.000;2023-01-29T07:36:53;0.00;99.90
30001;DHT22;16845;48.670;9.000;2023-01-29T07:39:22;0.00;99.90
30001;DHT22;16845;48.670;9.000;2023-01-29T07:41:50;0.00;99.90
30001;DHT22;16845;48.670;9.000;2023-01-29T07:44:18;0.00;99.90
30001;DHT22;16845;48.670;9.000;2023-01-29T07:46:46;0.10;99.90
30001;DHT22;16845;48.670;9.000;2023-01-29T07:49:14;0.20;99.90
30001;DHT22;16845;48.670;9.000;2023-01-29T07:51:42;0.10;99.90
30001;DHT22;16845;48.670;9.000;2023-01-29T07:54:11;0.10;99.90
30001;DHT22;16845;48.670;9.000;2023-01-29T07:56:39;0.20;99.90
30001;DHT22;16845;48.670;9.000;2023-01-29T07:59:06;0.10;99.90
30001;DHT22;16845;48.670;9.000;2023-01-29T08:01:34;0.10;99.90
30001;DHT22;16845;48.670;9.000;2023-01-29T08:04:02;0.00;99.90
30001;DHT22;16845;48.670;9.000;2023-01-29T08:06:33;0.10;99.90
30001;DHT22;16845;48.670;9.000;2023-01-29T08:09:02;0.10;99.90
30001;DHT22;16845;48.670;9.000;2023-01-29T08:11:31;0.00;99.90
30001;DHT22;16845;48.670;9.000;2023-01-29T08:13:59;0.00;99.90
30001;DHT22;16845;48.670;9.000;2023-01-29T08:16:27;0.10;99.90
30001;DHT22;16845;48.670;9.000;2023-01-29T08:18:55;0.20;99.90
30001;DHT22;16845;48.670;9.000;2023-01-29T08:21:22;0.10;99.90
30001;DHT22;16845;48.670;9.000;2023-01-29T08:23:50;0.20;99.90
30001;DHT22;16845;48.670;9.000;2023-01-29T08:26:18;0.30;99.90
30001;DHT22;16845;48.670;9.000;2023-01-29T08:28:47;0.20;99.90
30001;DHT22;16845;48.670;9.000;2023-01-29T08:31:16;0.20;99.90
30001;DHT22;16845;48.670;9.000;2023-01-29T08:33:46;0.20;99.90
30001;DHT22;16845;48.670;9.000;2023-01-29T08:36:14;0.20;99.90
30001;DHT22;16845;48.670;9.000;2023-01-29T08:38:42;0.30;99.90
30001;DHT22;16845;48.670;9.000;2023-01-29T08:41:10;0.40;99.90
30001;DHT22;16845;48.670;9.000;2023-01-29T08:43:37;0.50;99.90
30001;DHT22;16845;48.670;9.000;2023-01-29T08:46:07;0.50;99.90
30001;DHT22;16845;48.670;9.000;2023-01-29T08:48:35;0.60;99.90
30001;DHT22;16845;48.670;9.000;2023-01-29T08:51:03;0.70;99.90
30001;DHT22;16845;48.670;9.000;2023-01-29T08:53:31;0.60;99.90
30001;DHT22;16845;48.670;9.000;2023-01-29T08:55:59;0.50;99.90
30001;DHT22;16845;48.670;9.000;2023-01-29T08:58:27;0.40;99.90
30001;DHT22;16845;48.670;9.000;2023-01-29T09:00:55;0.50;99.90
30001;DHT22;16845;48.670;9.000;2023-01-29T09:03:24;0.40;99.90
30001;DHT22;16845;48.670;9.000;2023-01-29T09:05:52;0.30;99.90
30001;DHT22;16845;48.670;9.000;2023-01-29T09:08:20;0.40;99.90
30001;DHT22;16845;48.670;9.000;2023-01-29T09:10:48;0.40;99.90
30001;DHT22;16845;48.670;9.000;2023-01-29T09:13:16;0.30;99.90
30001;DHT22;16845;48.670;9.000;2023-01-29T09:15:44;0.30;99.90
30001;DHT22;16845;48.670;9.000;2023-01-29T09:18:12;0.60;99.90
30001;DHT22;16845;48.670;9.000;2023-01-29T09:20:41;0.70;99.90
30001;DHT22;16845;48.670;9.000;2023-01-29T09:23:10;0.80;99.90
30001;DHT22;16845;48.670;9.000;2023-01-29T09:25:38;0.90;99.90
30001;DHT22;16845;48.670;9.000;2023-01-29T09:28:06;0.90;99.90
30001;DHT22;16845;48.670;9.000;2023-01-29T09:30:34;0.90;99.90
30001;DHT22;16845;48.670;9.000;2023-01-29T09:33:04;1.10;99.90
30001;DHT22;16845;48.670;9.000;2023-01-29T09:35:32;1.30;99.90
30001;DHT22;16845;48.670;9.000;2023-01-29T09:38:02;1.20;99.90
30001;DHT22;16845;48.670;9.000;2023-01-29T09:40:34;1.10;99.90
30001;DHT22;16845;48.670;9.000;2023-01-29T09:43:08;1.10;99.90
30001;DHT22;16845;48.670;9.000;2023-01-29T09:45:41;1.30;99.90
30001;DHT22;16845;48.670;9.000;2023-01-29T09:48:11;1.20;99.90
30001;DHT22;16845;48.670;9.000;2023-01-29T09:50:42;1.20;99.90
30001;DHT22;16845;48.670;9.000;2023-01-29T09:53:17;1.10;99.90
30001;DHT22;16845;48.670;9.000;2023-01-29T09:55:50;1.20;99.90
30001;DHT22;16845;48.670;9.000;2023-01-29T09:58:23;1.20;99.90
30001;DHT22;16845;48.670;9.000;2023-01-29T10:00:59;1.20;99.90
30001;DHT22;16845;48.670;9.000;2023-01-29T10:03:47;1.30;99.90
30001;DHT22;16845;48.670;9.000;2023-01-29T10:06:24;1.50;99.90
30001;DHT22;16845;48.670;9.000;2023-01-29T10:09:25;1.80;99.90
30001;DHT22;16845;48.670;9.000;2023-01-29T10:12:07;1.80;99.90
30001;DHT22;16845;48.670;9.000;2023-01-29T10:14:44;1.80;99.90
30001;DHT22;16845;48.670;9.000;2023-01-29T10:17:28;1.80;99.90
30001;DHT22;16845;48.670;9.000;2023-01-29T10:20:18;1.80;99.90
30001;DHT22;16845;48.670;9.000;2023-01-29T10:22:59;2.00;99.90
30001;DHT22;16845;48.670;9.000;2023-01-29T10:25:32;2.10;99.90
30001;DHT22;16845;48.670;9.000;2023-01-29T10:28:14;2.10;99.90
30001;DHT22;16845;48.670;9.000;2023-01-29T10:30:47;2.20;99.90
30001;DHT22;16845;48.670;9.000;2023-01-29T10:33:20;2.30;99.90
30001;DHT22;16845;48.670;9.000;2023-01-29T10:35:54;2.60;99.90
30001;DHT22;16845;48.670;9.000;2023-01-29T10:38:42;2.60;99.90
30001;DHT22;16845;48.670;9.000;2023-01-29T10:41:22;2.70;99.90
30001;DHT22;16845;48.670;9.000;2023-01-29T10:44:03;2.60;99.90
30001;DHT22;16845;48.670;9.000;2023-01-29T10:46:47;2.80;99.90
30001;DHT22;16845;48.670;9.000;2023-01-29T10:49:29;3.10;99.90
30001;DHT22;16845;48.670;9.000;2023-01-29T10:52:09;2.90;99.90
30001;DHT22;16845;48.670;9.000;2023-01-29T10:54:53;2.80;99.90
30001;DHT22;16845;48.670;9.000;2023-01-29T10:57:49;2.80;99.90
30001;DHT22;16845;48.670;9.000;2023-01-29T11:00:21;2.80;99.90
30001;DHT22;16845;48.670;9.000;2023-01-29T11:02:51;2.80;99.90
30001;DHT22;16845;48.670;9.000;2023-01-29T11:05:23;2.60;99.90
30001;DHT22;16845;48.670;9.000;2023-01-29T11:08:01;2.80;99.90
30001;DHT22;16845;48.670;9.000;2023-01-29T11:10:32;2.80;99.90
30001;DHT22;16845;48.670;9.000;2023-01-29T11:13:04;3.00;99.90
30001;DHT22;16845;48.670;9.000;2023-01-29T11:15:32;3.20;99.90
30001;DHT22;16845;48.670;9.000;2023-01-29T11:18:05;3.30;99.90
30001;DHT22;16845;48.670;9.000;2023-01-29T11:20:36;3.50;99.90
30001;DHT22;16845;48.670;9.000;2023-01-29T11:23:04;3.70;99.90
30001;DHT22;16845;48.670;9.000;2023-01-29T11:25:33;3.60;99.90
30001;DHT22;16845;48.670;9.000;2023-01-29T11:28:01;2.80;99.90
30001;DHT22;16845;48.670;9.000;2023-01-29T11:30:34;2.60;99.90
30001;DHT22;16845;48.670;9.000;2023-01-29T11:33:08;2.70;99.90
30001;DHT22;16845;48.670;9.000;2023-01-29T11:35:36;2.60;99.90
30001;DHT22;16845;48.670;9.000;2023-01-29T11:38:17;2.70;99.90
30001;DHT22;16845;48.670;9.000;2023-01-29T11:40:45;2.70;99.90
30001;DHT22;16845;48.670;9.000;2023-01-29T11:43:28;2.70;99.90
30001;DHT22;16845;48.670;9.000;2023-01-29T11:46:00;2.70;99.90
30001;DHT22;16845;48.670;9.000;2023-01-29T11:48:34;2.80;99.90
30001;DHT22;16845;48.670;9.000;2023-01-29T11:51:07;2.80;99.90
30001;DHT22;16845;48.670;9.000;2023-01-29T11:53:38;2.90;99.90
30001;DHT22;16845;48.670;9.000;2023-01-29T11:56:20;2.90;99.90
30001;DHT22;16845;48.670;9.000;2023-01-29T11:58:50;2.90;99.90
30001;DHT22;16845;48.670;9.000;2023-01-29T12:01:29;3.10;99.90
30001;DHT22;16845;48.670;9.000;2023-01-29T12:03:59;2.90;99.90
30001;DHT22;16845;48.670;9.000;2023-01-29T12:06:32;3.00;99.90
30001;DHT22;16845;48.670;9.000;2023-01-29T12:09:07;3.00;99.90
30001;DHT22;16845;48.670;9.000;2023-01-29T12:11:36;2.90;99.90
30001;DHT22;16845;48.670;9.000;2023-01-29T12:14:07;2.90;99.90
30001;DHT22;16845;48.670;9.000;2023-01-29T12:16:53;2.90;99.90
30001;DHT22;16845;48.670;9.000;2023-01-29T12:19:27;2.90;99.90
30001;DHT22;16845;48.670;9.000;2023-01-29T12:22:02;3.10;99.90
30001;DHT22;16845;48.670;9.000;2023-01-29T12:24:34;3.60;99.90
30001;DHT22;16845;48.670;9.000;2023-01-29T12:27:10;4.30;99.90
30001;DHT22;16845;48.670;9.000;2023-01-29T12:29:43;5.00;99.90
30001;DHT22;16845;48.670;9.000;2023-01-29T12:32:25;5.60;99.90
30001;DHT22;16845;48.670;9.000;2023-01-29T12:34:57;6.00;99.90
30001;DHT22;16845;48.670;9.000;2023-01-29T12:37:37;6.40;99.90
30001;DHT22;16845;48.670;9.000;2023-01-29T12:40:11;6.30;99.90
30001;DHT22;16845;48.670;9.000;2023-01-29T12:42:42;6.80;99.90
30001;DHT22;16845;48.670;9.000;2023-01-29T12:45:16;7.30;99.90
30001;DHT22;16845;48.670;9.000;2023-01-29T12:47:48;7.40;99.90
30001;DHT22;16845;48.670;9.000;2023-01-29T12:50:20;7.50;99.90
30001;DHT22;16845;48.670;9.000;2023-01-29T12:52:52;7.10;99.90
30001;DHT22;16845;48.670;9.000;2023-01-29T12:55:23;7.00;99.90
30001;DHT22;16845;48.670;9.000;2023-01-29T12:57:55;7.10;99.90
30001;DHT22;16845;48.670;9.000;2023-01-29T13:00:26;7.00;99.90
30001;DHT22;16845;48.670;9.000;2023-01-29T13:03:02;7.40;99.90
30001;DHT22;16845;48.670;9.000;2023-01-29T13:05:35;8.30;99.90
30001;DHT22;16845;48.670;9.000;2023-01-29T13:08:07;9.50;99.90
30001;DHT22;16845;48.670;9.000;2023-01-29T13:10:40;9.00;99.90
30001;DHT22;16845;48.670;9.000;2023-01-29T13:13:14;9.70;99.90
30001;DHT22;16845;48.670;9.000;2023-01-29T13:15:43;10.00;99.20
30001;DHT22;16845;48.670;9.000;2023-01-29T13:18:29;10.40;99.90
30001;DHT22;16845;48.670;9.000;2023-01-29T13:20:59;12.20;97.30
30001;DHT22;16845;48.670;9.000;2023-01-29T13:23:31;12.60;94.90
30001;DHT22;16845;48.670;9.000;2023-01-29T13:26:00;11.20;94.60
30001;DHT22;16845;48.670;9.000;2023-01-29T13:28:29;9.50;96.90
30001;DHT22;16845;48.670;9.000;2023-01-29T13:31:21;8.50;97.90
30001;DHT22;16845;48.670;9.000;2023-01-29T13:33:58;8.20;98.30
30001;DHT22;16845;48.670;9.000;2023-01-29T13:36:28;8.40;99.20
30001;DHT22;16845;48.670;9.000;2023-01-29T13:39:02;7.60;99.90
30001;DHT22;16845;48.670;9.000;2023-01-29T13:41:32;7.30;99.90
30001;DHT22;16845;48.670;9.000;2023-01-29T13:44:01;6.80;99.90
30001;DHT22;16845;48.670;9.000;2023-01-29T13:46:31;6.80;99.90
30001;DHT22;16845;48.670;9.000;2023-01-29T13:49:01;6.60;99.90
30001;DHT22;16845;48.670;9.000;2023-01-29T13:51:34;6.00;99.90
30001;DHT22;16845;48.670;9.000;2023-01-29T13:54:05;5.40;99.90
30001;DHT22;16845;48.670;9.000;2023-01-29T13:56:44;5.20;99.90
30001;DHT22;16845;48.670;9.000;2023-01-29T13:59:22;4.80;99.90
30001;DHT22;16845;48.670;9.000;2023-01-29T14:02:16;4.70;99.90
30001;DHT22;16845;48.670;9.000;2023-01-29T14:04:47;4.80;99.90
30001;DHT22;16845;48.670;9.000;2023-01-29T14:07:48;5.10;99.90
30001;DHT22;16845;48.670;9.000;2023-01-29T14:10:19;5.60;99.90
30001;DHT22;16845;48.670;9.000;2023-01-29T14:12:49;5.70;99.90
30001;DHT22;16845;48.670;9.000;2023-01-29T14:15:30;5.70;99.90
30001;DHT22;16845;48.670;9.000;2023-01-29T14:18:05;5.50;99.90
30001;DHT22;16845;48.670;9.000;2023-01-29T14:21:00;5.30;99.90
30001;DHT22;16845;48.670;9.000;2023-01-29T14:23:31;5.00;99.90
30001;DHT22;16845;48.670;9.000;2023-01-29T14:26:03;4.60;99.90
30001;DHT22;16845;48.670;9.000;2023-01-29T14:28:33;4.30;99.90
30001;DHT22;16845;48.670;9.000;2023-01-29T14:31:02;4.20;99.90
30001;DHT22;16845;48.670;9.000;2023-01-29T14:33:34;4.00;99.90
30001;DHT22;16845;48.670;9.000;2023-01-29T14:36:08;3.70;99.90
30001;DHT22;16845;48.670;9.000;2023-01-29T14:38:37;3.30;99.90
30001;DHT22;16845;48.670;9.000;2023-01-29T14:41:13;3.10;99.90
30001;DHT22;16845;48.670;9.000;2023-01-29T14:43:42;3.00;99.90
30001;DHT22;16845;48.670;9.000;2023-01-29T14:46:41;2.80;99.90
30001;DHT22;16845;48.670;9.000;2023-01-29T14:49:09;2.80;99.90
30001;DHT22;16845;48.670;9.000;2023-01-29T14:51:42;2.80;99.90
30001;DHT22;16845;48.670;9.000;2023-01-29T14:54:21;2.80;99.90
30001;DHT22;16845;48.670;9.000;2023-01-29T14:56:56;2.70;99.90
30001;DHT22;16845;48.670;9.000;2023-01-29T14:59:29;2.70;99.90
30001;DHT22;16845;48.670;9.000;2023-01-29T15:02:01;2.70;99.90
30001;DHT22;16845;48.670;9.000;2023-01-29T15:04:36;2.60;99.90
30001;DHT22;16845;48.670;9.000;2023-01-29T15:07:22;2.50;99.90
30001;DHT22;16845;48.670;9.000;2023-01-29T15:09:54;2.50;99.90
30001;DHT22;16845;48.670;9.000;2023-01-29T15:12:46;2.40;99.90
30001;DHT22;16845;48.670;9.000;2023-01-29T15:15:19;2.60;99.90
30001;DHT22;16845;48.670;9.000;2023-01-29T15:17:53;2.50;99.90
30001;DHT22;16845;48.670;9.000;2023-01-29T15:20:28;2.50;99.90
30001;DHT22;16845;48.670;9.000;2023-01-29T15:22:57;2.40;99.90
30001;DHT22;16845;48.670;9.000;2023-01-29T15:25:27;2.40;99.90
30001;DHT22;16845;48.670;9.000;2023-01-29T15:27:59;2.40;99.90
30001;DHT22;16845;48.670;9.000;2023-01-29T15:30:32;2.20;99.90
30001;DHT22;16845;48.670;9.000;2023-01-29T15:33:01;2.20;99.90
30001;DHT22;16845;48.670;9.000;2023-01-29T15:35:32;2.20;99.90
30001;DHT22;16845;48.670;9.000;2023-01-29T15:38:04;2.10;99.90
30001;DHT22;16845;48.670;9.000;2023-01-29T15:40:33;2.00;99.90
30001;DHT22;16845;48.670;9.000;2023-01-29T15:43:01;2.00;99.90
30001;DHT22;16845;48.670;9.000;2023-01-29T15:45:31;1.90;99.90
30001;DHT22;16845;48.670;9.000;2023-01-29T15:48:03;1.80;99.90
30001;DHT22;16845;48.670;9.000;2023-01-29T15:50:35;1.70;99.90
30001;DHT22;16845;48.670;9.000;2023-01-29T15:53:12;1.60;99.90
30001;DHT22;16845;48.670;9.000;2023-01-29T15:55:40;1.50;99.90
30001;DHT22;16845;48.670;9.000;2023-01-29T15:58:13;1.30;99.90
30001;DHT22;16845;48.670;9.000;2023-01-29T16:00:47;1.10;99.90
30001;DHT22;16845;48.670;9.000;2023-01-29T16:03:21;1.00;99.90
30001;DHT22;16845;48.670;9.000;2023-01-29T16:05:50;0.90;99.90
30001;DHT22;16845;48.670;9.000;2023-01-29T16:08:21;0.80;99.90
30001;DHT22;16845;48.670;9.000;2023-01-29T16:10:53;0.60;99.90
30001;DHT22;16845;48.670;9.000;2023-01-29T16:13:25;0.50;99.90
30001;DHT22;16845;48.670;9.000;2023-01-29T16:15:55;0.50;99.90